Oshkosh, Wisconsin
Current Conditions -  °F | °C
As of 11:53 PM on Thursday 30 Oct 2014 (Local Time) from KOSH Reporting Station
Broken Clouds Broken Clouds  
Wind Chill: 36°   Ceiling: 6500
Heat Index: 42°   Visibility: 10mi
Dew Point: 33°   Wind: 12mph
Humidity: 70%   Direction: 300°WNW
Pressure: 30.03"   Gusts: NA
Location:  44.03°N, 88.54°W
Report Text: KOSH 310453Z 30010KT 10SM SCT035 BKN065 06/01 A3003 RMK AO2 SLP173 T00560006
Loading
Personal Weather Stations






























Interactive Weather Map
Tropical Storm Tracking
New forecast layout! Learn more

10-Day Weather Forecast

Advertisements
Track Severe Weather on mobile